createdAt,value
2019-04-23T00:02:13.643Z,48.73
2019-04-23T00:04:42.665Z,47.30
2019-04-23T00:07:31.133Z,57.00
2019-04-23T00:09:46.700Z,48.47
2019-04-23T00:12:23.833Z,49.83
2019-04-23T00:14:55.237Z,48.53
2019-04-23T00:17:22.734Z,44.83
2019-04-23T00:19:48.648Z,47.87
2019-04-23T00:22:37.044Z,48.43
2019-04-23T00:25:38.090Z,40.33
2019-04-23T00:27:51.873Z,35.87
2019-04-23T00:30:18.712Z,32.37
2019-04-23T00:32:48.067Z,35.80
2019-04-23T00:35:18.082Z,37.97
2019-04-23T00:37:51.423Z,40.23
2019-04-23T00:40:28.494Z,37.00
2019-04-23T00:43:09.181Z,35.90
2019-04-23T00:45:24.695Z,42.80
2019-04-23T00:47:58.937Z,45.43
2019-04-23T00:50:41.325Z,108.97
2019-04-23T00:53:04.055Z,51.87
2019-04-23T00:58:19.894Z,40.83
2019-04-23T01:00:51.380Z,41.63
2019-04-23T01:03:12.532Z,42.63
2019-04-23T01:05:50.356Z,39.83
2019-04-23T01:08:18.470Z,40.03
2019-04-23T01:11:01.840Z,38.37
2019-04-23T01:13:36.316Z,51.40
2019-04-23T01:15:59.668Z,54.83
2019-04-23T01:18:49.093Z,48.30
2019-04-23T01:20:54.169Z,37.63
2019-04-23T01:23:33.729Z,41.43
2019-04-23T01:26:18.217Z,36.53
2019-04-23T01:28:59.932Z,31.20
2019-04-23T01:31:27.184Z,31.67
2019-04-23T01:33:59.482Z,30.40
2019-04-23T01:36:25.254Z,28.93
2019-04-23T01:39:01.471Z,27.73
2019-04-23T01:41:36.933Z,27.03
2019-04-23T01:44:07.036Z,24.00
2019-04-23T01:46:41.974Z,21.53
2019-04-23T01:49:07.114Z,20.50
2019-04-23T01:54:12.418Z,20.27
2019-04-23T01:56:41.659Z,20.50
2019-04-23T01:59:18.280Z,24.47
2019-04-23T02:01:52.008Z,24.33
2019-04-23T02:04:24.134Z,23.30
2019-04-23T02:07:00.890Z,23.47
2019-04-23T02:09:36.472Z,27.27
2019-04-23T02:12:04.487Z,32.20
2019-04-23T02:14:43.316Z,32.50
2019-04-23T02:17:16.019Z,33.20
2019-04-23T02:22:31.683Z,41.60
2019-04-23T02:25:11.097Z,44.20
2019-04-23T02:27:36.648Z,40.40
2019-04-23T02:32:59.714Z,42.10
2019-04-23T02:38:00.272Z,35.23
2019-04-23T02:40:37.372Z,35.93
2019-04-23T02:43:12.662Z,33.43
2019-04-23T02:45:50.344Z,31.17
2019-04-23T02:51:10.886Z,31.77
2019-04-23T02:53:36.074Z,28.53
2019-04-23T02:56:04.378Z,27.60
2019-04-23T02:58:36.880Z,27.67
2019-04-23T03:01:21.630Z,26.73
2019-04-23T03:03:49.711Z,26.93
2019-04-23T03:06:16.694Z,29.07
2019-04-23T03:18:56.562Z,23.57
2019-04-23T03:24:11.502Z,27.77
2019-04-23T03:27:07.427Z,25.40
2019-04-23T03:29:19.537Z,23.23
2019-04-23T03:39:18.730Z,24.90
2019-04-23T03:41:50.275Z,27.20
2019-04-23T03:44:22.358Z,26.27
2019-04-23T03:46:51.815Z,25.57
2019-04-23T03:49:30.185Z,71.23
2019-04-23T03:52:23.280Z,94.40
2019-04-23T03:54:58.663Z,73.83
2019-04-23T04:04:51.895Z,27.83
2019-04-23T04:12:39.971Z,26.80
2019-04-23T04:15:18.537Z,23.50
2019-04-23T04:17:48.541Z,22.87
2019-04-23T04:20:17.841Z,22.73
2019-04-23T04:23:01.668Z,24.30
2019-04-23T04:30:35.865Z,24.43
2019-04-23T04:33:31.600Z,24.40
2019-04-23T04:36:07.850Z,25.80
2019-04-23T04:38:40.150Z,25.13
2019-04-23T04:43:58.761Z,24.73
2019-04-23T04:48:49.353Z,25.30
2019-04-23T04:51:19.284Z,28.83
2019-04-23T04:54:09.635Z,25.17
2019-04-23T04:56:40.349Z,29.23
2019-04-23T04:59:11.533Z,48.40
2019-04-23T05:01:36.932Z,52.87
2019-04-23T05:04:21.299Z,40.07
2019-04-23T05:06:55.021Z,35.70
2019-04-23T05:09:25.217Z,31.27
2019-04-23T05:14:23.460Z,37.73
2019-04-23T05:16:56.348Z,116.07
2019-04-23T05:19:42.622Z,34.73
2019-04-23T05:22:17.072Z,36.20
2019-04-23T05:27:25.411Z,27.77
2019-04-23T05:29:54.332Z,27.13
2019-04-23T05:32:18.863Z,29.43
2019-04-23T05:34:55.500Z,27.60
2019-04-23T05:37:42.266Z,30.83
2019-04-23T05:40:08.729Z,55.90
2019-04-23T05:42:44.571Z,26.97
2019-04-23T05:45:08.372Z,28.83
2019-04-23T05:47:43.080Z,32.03
2019-04-23T05:50:18.838Z,31.60
2019-04-23T05:52:49.928Z,35.53
2019-04-23T05:55:13.641Z,23.73
2019-04-23T05:57:44.575Z,24.97
2019-04-23T06:00:37.867Z,26.67
2019-04-23T06:03:09.140Z,26.03
2019-04-23T06:05:41.446Z,23.17
2019-04-23T06:08:07.884Z,23.30
2019-04-23T06:10:44.301Z,22.47
2019-04-23T06:16:22.378Z,22.33
2019-04-23T06:19:02.747Z,27.17
2019-04-23T06:21:34.694Z,34.30
2019-04-23T06:26:49.202Z,31.47
2019-04-23T06:29:16.218Z,36.93
2019-04-23T06:31:43.987Z,27.60
2019-04-23T06:36:40.243Z,34.63
2019-04-23T06:39:25.992Z,91.47
2019-04-23T06:41:51.617Z,43.23
2019-04-23T06:49:30.722Z,46.23
2019-04-23T06:59:35.764Z,44.93
2019-04-23T07:02:25.867Z,139.67
2019-04-23T07:05:03.399Z,69.53
2019-04-23T07:07:42.621Z,46.07
2019-04-23T07:09:57.931Z,55.87
2019-04-23T07:12:38.970Z,43.87
2019-04-23T07:17:31.037Z,111.83
2019-04-23T07:20:10.856Z,46.23
2019-04-23T07:22:37.504Z,87.93
2019-04-23T07:25:12.889Z,51.70
2019-04-23T07:27:45.669Z,43.30
2019-04-23T07:33:31.114Z,118.43
2019-04-23T07:35:52.024Z,55.80
2019-04-23T07:38:52.934Z,113.93
2019-04-23T07:41:52.924Z,59.33
2019-04-23T07:44:36.806Z,61.27
2019-04-23T07:47:25.102Z,42.27
2019-04-23T07:50:09.844Z,89.63
2019-04-23T07:52:38.648Z,83.77
2019-04-23T07:55:02.177Z,38.17
2019-04-23T07:57:53.431Z,43.13
2019-04-23T08:05:21.305Z,79.33
2019-04-23T08:07:37.497Z,91.43
2019-04-23T08:12:47.058Z,107.50
2019-04-23T08:15:23.190Z,120.07
2019-04-23T08:17:51.225Z,385.70
2019-04-23T08:20:26.768Z,59.23
2019-04-23T08:22:57.106Z,161.30
2019-04-23T08:25:44.451Z,102.40
2019-04-23T08:28:14.424Z,129.80
2019-04-23T08:30:49.940Z,116.67
2019-04-23T08:33:36.477Z,266.90
2019-04-23T08:35:50.952Z,175.63
2019-04-23T08:38:25.960Z,207.90
2019-04-23T08:40:57.193Z,199.50
2019-04-23T08:43:36.794Z,199.67
2019-04-23T08:46:13.460Z,354.87
2019-04-23T08:48:49.709Z,316.43
2019-04-23T08:51:31.501Z,174.80
2019-04-23T08:54:01.416Z,163.40
2019-04-23T08:56:27.838Z,268.00
2019-04-23T08:58:49.023Z,71.07
2019-04-23T09:01:24.505Z,98.53
2019-04-23T09:03:51.475Z,297.47
2019-04-23T09:08:56.855Z,178.97
2019-04-23T09:11:45.956Z,233.37
2019-04-23T09:14:04.666Z,289.67
2019-04-23T09:16:52.602Z,372.73
2019-04-23T09:19:21.656Z,229.33
2019-04-23T09:21:53.630Z,222.50
2019-04-23T09:24:20.062Z,383.87
2019-04-23T09:26:58.599Z,107.03
2019-04-23T09:29:42.549Z,436.33
2019-04-23T09:34:58.656Z,167.90
2019-04-23T09:37:49.323Z,141.47
2019-04-23T09:40:31.731Z,300.90
2019-04-23T09:43:13.881Z,319.67
2019-04-23T09:46:06.678Z,562.23
2019-04-23T09:48:26.613Z,64.87
2019-04-23T09:51:03.122Z,259.53
2019-04-23T09:53:37.344Z,133.17
2019-04-23T09:56:06.856Z,313.60
2019-04-23T09:58:46.324Z,248.43
2019-04-23T10:01:19.617Z,84.90
2019-04-23T10:03:36.318Z,434.97
2019-04-23T10:05:59.812Z,164.30
2019-04-23T10:08:31.266Z,161.13
2019-04-23T10:11:07.246Z,271.07
2019-04-23T10:13:40.592Z,287.87
2019-04-23T10:16:15.398Z,235.07
2019-04-23T10:18:47.147Z,108.93
2019-04-23T10:21:21.378Z,326.97
2019-04-23T10:23:51.702Z,478.30
2019-04-23T10:26:21.834Z,208.10
2019-04-23T10:28:58.296Z,365.93
2019-04-23T10:31:27.571Z,251.80
2019-04-23T10:33:57.979Z,345.47
2019-04-23T10:36:28.290Z,389.10
2019-04-23T10:39:08.589Z,183.70
2019-04-23T10:41:52.647Z,538.80
2019-04-23T10:44:38.016Z,202.00
2019-04-23T10:47:59.444Z,199.13
2019-04-23T10:50:35.846Z,281.87
2019-04-23T10:55:44.839Z,201.90
2019-04-23T10:58:08.352Z,190.97
2019-04-23T11:00:53.137Z,102.47
2019-04-23T11:03:31.564Z,72.20
2019-04-23T11:08:40.546Z,265.97
2019-04-23T11:11:25.541Z,117.10
2019-04-23T11:13:53.076Z,257.57
2019-04-23T11:19:10.699Z,244.13
2019-04-23T11:21:42.850Z,302.37
2019-04-23T11:24:20.711Z,170.03
2019-04-23T11:26:49.888Z,76.77
2019-04-23T11:29:19.414Z,243.27
2019-04-23T11:34:34.723Z,297.33
2019-04-23T11:39:21.677Z,256.00
2019-04-23T11:42:01.533Z,313.03
2019-04-23T11:44:36.493Z,314.40
2019-04-23T11:47:07.111Z,313.20
2019-04-23T11:54:30.677Z,333.43
2019-04-23T11:57:14.128Z,332.87
2019-04-23T11:59:36.045Z,190.30
2019-04-23T12:02:32.689Z,372.70
2019-04-23T12:05:21.554Z,285.60
2019-04-23T12:07:39.474Z,201.03
2019-04-23T12:10:26.823Z,308.67
2019-04-23T12:12:39.519Z,250.30
2019-04-23T12:15:25.230Z,312.20
2019-04-23T12:20:21.320Z,295.83
2019-04-23T12:23:03.068Z,423.27
2019-04-23T12:27:38.657Z,463.17
2019-04-23T12:30:25.393Z,392.00
2019-04-23T12:38:15.460Z,238.03
2019-04-23T12:40:31.125Z,426.53
2019-04-23T12:45:35.586Z,525.80
2019-04-23T12:53:10.197Z,352.97
2019-04-23T12:55:43.627Z,320.93
2019-04-23T12:58:14.540Z,455.93
2019-04-23T13:03:20.748Z,459.17
2019-04-23T13:05:36.091Z,410.67
2019-04-23T13:10:45.355Z,585.57
2019-04-23T13:16:12.276Z,400.13
2019-04-23T13:18:26.825Z,434.17
2019-04-23T13:20:51.665Z,545.50
2019-04-23T13:23:24.938Z,483.43
2019-04-23T13:28:27.692Z,252.27
2019-04-23T13:31:00.801Z,333.73
2019-04-23T13:33:39.081Z,193.80
2019-04-23T13:41:19.163Z,582.03
2019-04-23T13:43:48.399Z,338.00
2019-04-23T13:46:46.739Z,494.47
2019-04-23T13:48:42.360Z,107.63
2019-04-23T13:51:24.088Z,634.43
2019-04-23T13:56:25.257Z,578.93
2019-04-23T13:58:51.062Z,420.50
2019-04-23T14:01:28.796Z,333.77
2019-04-23T14:03:53.838Z,364.43
2019-04-23T14:11:26.528Z,563.73
2019-04-23T14:16:34.427Z,546.23
2019-04-23T14:18:58.703Z,625.73
2019-04-23T14:25:04.666Z,471.60
2019-04-23T14:26:38.464Z,626.80
2019-04-23T14:29:02.097Z,608.03
2019-04-23T14:31:30.403Z,321.80
2019-04-23T14:34:04.968Z,641.33
2019-04-23T14:36:36.156Z,425.53
2019-04-23T14:39:06.103Z,425.40
2019-04-23T14:41:32.242Z,500.53
2019-04-23T14:46:53.014Z,510.53
2019-04-23T14:49:20.491Z,404.43
2019-04-23T14:54:34.427Z,607.13
2019-04-23T14:56:59.402Z,312.97
2019-04-23T14:59:16.401Z,397.13
2019-04-23T15:01:58.115Z,566.37
2019-04-23T15:04:27.321Z,548.50
2019-04-23T15:07:02.534Z,448.80
2019-04-23T15:09:30.934Z,603.67
2019-04-23T15:12:06.225Z,667.70
2019-04-23T15:14:36.166Z,614.67
2019-04-23T15:16:59.893Z,625.00
2019-04-23T15:19:41.604Z,723.13
2019-04-23T15:22:07.798Z,475.83
2019-04-23T15:28:00.123Z,600.07
2019-04-23T15:29:34.535Z,426.33
2019-04-23T15:34:36.860Z,522.10
2019-04-23T15:37:33.507Z,318.30
2019-04-23T15:39:47.712Z,574.83
2019-04-23T15:44:48.798Z,311.20
2019-04-23T15:47:21.231Z,446.63
2019-04-23T15:49:55.494Z,415.90
2019-04-23T15:52:19.232Z,368.27
2019-04-23T15:54:55.268Z,706.58
2019-04-23T15:57:41.667Z,384.73
2019-04-23T15:59:54.659Z,383.73
2019-04-23T16:01:56.256Z,176.10
2019-04-23T16:04:25.161Z,354.17
2019-04-23T16:06:55.915Z,235.33
2019-04-23T16:10:00.038Z,227.47
2019-04-23T16:12:24.615Z,399.37
2019-04-23T16:15:02.672Z,310.93
2019-04-23T16:17:28.996Z,296.53
2019-04-23T16:22:32.109Z,406.23
2019-04-23T16:25:11.313Z,353.00
2019-04-23T16:27:32.203Z,274.00
2019-04-23T16:35:28.194Z,346.43
2019-04-23T16:37:50.435Z,484.93
2019-04-23T16:40:19.963Z,222.37
2019-04-23T16:42:49.203Z,450.80
2019-04-23T16:45:27.045Z,139.50
2019-04-23T16:47:46.895Z,316.77
2019-04-23T16:50:19.421Z,267.33
2019-04-23T16:52:53.231Z,286.60
2019-04-23T16:55:16.655Z,335.53
2019-04-23T16:57:54.922Z,130.27
2019-04-23T17:00:44.533Z,359.00
2019-04-23T17:02:59.067Z,447.50
2019-04-23T17:05:29.834Z,308.17
2019-04-23T17:08:08.973Z,226.87
2019-04-23T17:10:37.855Z,295.57
2019-04-23T17:12:59.732Z,145.07
2019-04-23T17:15:27.344Z,229.03
2019-04-23T17:17:54.959Z,190.67
2019-04-23T17:23:05.222Z,259.80
2019-04-23T17:25:26.138Z,300.50
2019-04-23T17:28:03.618Z,271.63
2019-04-23T17:30:28.653Z,350.07
2019-04-23T17:33:05.809Z,416.63
2019-04-23T17:38:22.979Z,271.30
2019-04-23T17:40:50.386Z,258.40
2019-04-23T17:43:12.312Z,363.13
2019-04-23T17:46:05.296Z,356.17
2019-04-23T17:48:22.342Z,332.53
2019-04-23T17:51:10.998Z,296.90
2019-04-23T17:58:43.464Z,294.57
2019-04-23T18:06:37.965Z,369.80
2019-04-23T18:08:49.426Z,518.27
2019-04-23T18:11:16.230Z,395.00
2019-04-23T18:13:49.828Z,389.73
2019-04-23T18:21:32.222Z,359.57
2019-04-23T18:24:14.869Z,424.20
2019-04-23T18:26:36.027Z,362.63
2019-04-23T18:29:17.289Z,140.17
2019-04-23T18:31:38.693Z,431.27
2019-04-23T18:34:16.459Z,324.93
2019-04-23T18:36:49.890Z,378.83
2019-04-23T18:39:26.294Z,267.93
2019-04-23T18:41:50.632Z,341.13
2019-04-23T18:44:32.644Z,263.27
2019-04-23T18:47:04.311Z,371.40
2019-04-23T18:49:35.530Z,451.13
2019-04-23T18:52:10.035Z,445.27
2019-04-23T18:54:34.720Z,299.53
2019-04-23T18:59:47.064Z,397.33
2019-04-23T19:02:37.910Z,453.60
2019-04-23T19:13:14.140Z,601.10
2019-04-23T19:18:04.466Z,573.00
2019-04-23T19:20:55.819Z,344.57
2019-04-23T19:23:32.094Z,376.70
2019-04-23T19:25:39.153Z,579.37
2019-04-23T19:28:33.147Z,618.43
2019-04-23T19:33:22.501Z,564.23
2019-04-23T19:41:21.290Z,411.17
2019-04-23T19:43:31.269Z,473.30
2019-04-23T19:48:27.634Z,206.53
2019-04-23T19:51:03.103Z,462.73
2019-04-23T19:53:41.883Z,520.27
2019-04-23T19:56:13.403Z,559.13
2019-04-23T20:01:12.134Z,488.50
2019-04-23T20:06:05.947Z,613.60
2019-04-23T20:08:50.180Z,456.10
2019-04-23T20:11:03.301Z,443.57
2019-04-23T20:13:40.751Z,491.00
2019-04-23T20:18:46.265Z,450.43
2019-04-23T20:21:19.304Z,426.13
2019-04-23T20:26:23.779Z,486.13
2019-04-23T20:29:19.235Z,407.57
2019-04-23T20:34:31.370Z,424.40
2019-04-23T20:36:49.535Z,533.23
2019-04-23T20:39:40.107Z,206.63
2019-04-23T20:42:10.729Z,201.60
2019-04-23T20:44:44.826Z,524.30
2019-04-23T20:47:05.716Z,568.33
2019-04-23T20:52:30.409Z,464.67
2019-04-23T20:55:05.149Z,367.03
2019-04-23T20:57:45.424Z,488.60
2019-04-23T21:00:23.762Z,390.40
2019-04-23T21:05:22.887Z,316.33
2019-04-23T21:10:37.218Z,166.77
2019-04-23T21:13:28.508Z,198.23
2019-04-23T21:16:02.760Z,317.37
2019-04-23T21:18:37.461Z,302.97
2019-04-23T21:21:08.240Z,131.77
2019-04-23T21:24:04.042Z,280.60
2019-04-23T21:26:35.827Z,211.57
2019-04-23T21:29:15.416Z,183.83
2019-04-23T21:31:59.072Z,171.80
2019-04-23T21:34:24.762Z,354.77
2019-04-23T21:37:14.191Z,254.93
2019-04-23T21:42:16.238Z,249.30
2019-04-23T21:47:38.635Z,286.67
2019-04-23T21:50:11.852Z,251.07
2019-04-23T21:52:36.111Z,268.30
2019-04-23T21:55:15.629Z,290.23
2019-04-23T21:58:10.513Z,287.57
2019-04-23T22:00:39.172Z,417.13
2019-04-23T22:03:18.135Z,147.73
2019-04-23T22:06:10.073Z,391.90
2019-04-23T22:08:57.699Z,253.50
2019-04-23T22:17:02.871Z,204.83
2019-04-23T22:22:00.956Z,257.67
2019-04-23T22:27:32.869Z,547.40
2019-04-23T22:30:33.924Z,439.43
2019-04-23T22:33:18.347Z,522.60
2019-04-23T22:35:57.466Z,318.70
2019-04-23T22:38:30.541Z,361.70
2019-04-23T22:40:56.250Z,518.80
2019-04-23T22:43:43.048Z,254.80
2019-04-23T22:46:38.031Z,380.77
2019-04-23T22:51:46.066Z,135.13
2019-04-23T22:54:32.259Z,158.83
2019-04-23T22:57:11.268Z,497.40
2019-04-23T22:59:57.334Z,385.03
2019-04-23T23:10:48.354Z,637.47
2019-04-23T23:13:34.836Z,174.60
2019-04-23T23:16:12.588Z,398.80
2019-04-23T23:18:43.880Z,407.17
2019-04-23T23:24:00.067Z,223.50
2019-04-23T23:26:50.406Z,632.27
2019-04-23T23:29:41.925Z,400.87
2019-04-23T23:32:24.450Z,272.37
2019-04-23T23:35:11.298Z,574.80
2019-04-23T23:37:29.974Z,326.40
2019-04-23T23:40:11.059Z,244.10
2019-04-23T23:45:21.722Z,270.23
2019-04-23T23:47:29.265Z,441.57
2019-04-23T23:50:16.226Z,355.57
2019-04-23T23:52:40.964Z,288.90
2019-04-23T23:55:18.480Z,374.00
2019-04-23T23:57:46.857Z,544.67
